sensor_id;sensor_type;location;lat;lon;timestamp;P1;P2;P0
70243;PMS7003;57634;51.136;17.024;2022-12-19T00:00:18;41;33;19
70243;PMS7003;57634;51.136;17.024;2022-12-19T00:03:25;41;35;20
70243;PMS7003;57634;51.136;17.024;2022-12-19T00:06:55;34;27;14
70243;PMS7003;57634;51.136;17.024;2022-12-19T00:09:58;20;14;6
70243;PMS7003;57634;51.136;17.024;2022-12-19T00:12:59;45;35;21
70243;PMS7003;57634;51.136;17.024;2022-12-19T00:16:01;43;36;23
70243;PMS7003;57634;51.136;17.024;2022-12-19T00:19:05;44;33;21
70243;PMS7003;57634;51.136;17.024;2022-12-19T00:22:07;49;37;23
70243;PMS7003;57634;51.136;17.024;2022-12-19T00:25:08;50;39;24
70243;PMS7003;57634;51.136;17.024;2022-12-19T00:28:10;50;40;25
70243;PMS7003;57634;51.136;17.024;2022-12-19T00:31:11;51;37;22
70243;PMS7003;57634;51.136;17.024;2022-12-19T00:34:13;47;39;25
70243;PMS7003;57634;51.136;17.024;2022-12-19T00:37:15;50;39;25
70243;PMS7003;57634;51.136;17.024;2022-12-19T00:40:17;50;40;24
70243;PMS7003;57634;51.136;17.024;2022-12-19T00:43:18;49;37;25
70243;PMS7003;57634;51.136;17.024;2022-12-19T00:46:19;46;35;23
70243;PMS7003;57634;51.136;17.024;2022-12-19T00:49:47;53;42;24
70243;PMS7003;57634;51.136;17.024;2022-12-19T00:52:49;50;41;25
70243;PMS7003;57634;51.136;17.024;2022-12-19T00:55:50;46;38;24
70243;PMS7003;57634;51.136;17.024;2022-12-19T00:58:52;55;44;28
70243;PMS7003;57634;51.136;17.024;2022-12-19T01:01:54;55;43;26
70243;PMS7003;57634;51.136;17.024;2022-12-19T01:15:25;50;40;26
70243;PMS7003;57634;51.136;17.024;2022-12-19T01:18:27;57;43;27
70243;PMS7003;57634;51.136;17.024;2022-12-19T01:21:29;51;38;24
70243;PMS7003;57634;51.136;17.024;2022-12-19T01:24:30;44;35;21
70243;PMS7003;57634;51.136;17.024;2022-12-19T01:27:31;50;38;19
70243;PMS7003;57634;51.136;17.024;2022-12-19T01:30:32;47;37;23
70243;PMS7003;57634;51.136;17.024;2022-12-19T01:33:34;56;43;26
70243;PMS7003;57634;51.136;17.024;2022-12-19T01:36:35;51;38;22
70243;PMS7003;57634;51.136;17.024;2022-12-19T01:39:36;44;35;22
70243;PMS7003;57634;51.136;17.024;2022-12-19T01:42:38;42;34;19
70243;PMS7003;57634;51.136;17.024;2022-12-19T01:45:39;45;36;22
70243;PMS7003;57634;51.136;17.024;2022-12-19T01:48:42;35;28;7
70243;PMS7003;57634;51.136;17.024;2022-12-19T01:52:11;51;40;25
70243;PMS7003;57634;51.136;17.024;2022-12-19T01:55:12;56;44;27
70243;PMS7003;57634;51.136;17.024;2022-12-19T01:58:14;52;43;27
70243;PMS7003;57634;51.136;17.024;2022-12-19T02:01:17;50;41;26
70243;PMS7003;57634;51.136;17.024;2022-12-19T02:04:19;54;43;27
70243;PMS7003;57634;51.136;17.024;2022-12-19T02:07:22;54;41;27
70243;PMS7003;57634;51.136;17.024;2022-12-19T02:10:26;56;42;26
70243;PMS7003;57634;51.136;17.024;2022-12-19T02:13:28;47;38;25
70243;PMS7003;57634;51.136;17.024;2022-12-19T02:19:50;53;42;26
70243;PMS7003;57634;51.136;17.024;2022-12-19T02:29:58;49;39;24
70243;PMS7003;57634;51.136;17.024;2022-12-19T02:33:15;51;38;24
70243;PMS7003;57634;51.136;17.024;2022-12-19T02:36:54;53;40;25
70243;PMS7003;57634;51.136;17.024;2022-12-19T02:39:57;51;40;25
70243;PMS7003;57634;51.136;17.024;2022-12-19T02:43:03;52;41;25
70243;PMS7003;57634;51.136;17.024;2022-12-19T02:46:08;52;41;25
70243;PMS7003;57634;51.136;17.024;2022-12-19T02:49:11;56;42;25
70243;PMS7003;57634;51.136;17.024;2022-12-19T02:55:26;53;41;26
70243;PMS7003;57634;51.136;17.024;2022-12-19T03:08:44;52;39;25
70243;PMS7003;57634;51.136;17.024;2022-12-19T03:12:20;45;36;21
70243;PMS7003;57634;51.136;17.024;2022-12-19T03:15:28;49;40;26
70243;PMS7003;57634;51.136;17.024;2022-12-19T03:18:32;46;36;21
70243;PMS7003;57634;51.136;17.024;2022-12-19T03:21:36;37;30;19
70243;PMS7003;57634;51.136;17.024;2022-12-19T03:24:43;47;37;23
70243;PMS7003;57634;51.136;17.024;2022-12-19T03:27:45;46;37;24
70243;PMS7003;57634;51.136;17.024;2022-12-19T03:30:49;56;41;25
70243;PMS7003;57634;51.136;17.024;2022-12-19T03:33:54;47;38;25
70243;PMS7003;57634;51.136;17.024;2022-12-19T03:37:27;51;39;25
70243;PMS7003;57634;51.136;17.024;2022-12-19T03:40:34;53;41;26
70243;PMS7003;57634;51.136;17.024;2022-12-19T03:43:39;50;40;25
70243;PMS7003;57634;51.136;17.024;2022-12-19T03:46:47;52;41;25
70243;PMS7003;57634;51.136;17.024;2022-12-19T03:49:56;52;39;24
70243;PMS7003;57634;51.136;17.024;2022-12-19T03:53:02;53;43;26
70243;PMS7003;57634;51.136;17.024;2022-12-19T03:59:49;45;35;24
70243;PMS7003;57634;51.136;17.024;2022-12-19T04:03:01;48;37;22
70243;PMS7003;57634;51.136;17.024;2022-12-19T04:06:05;52;41;26
70243;PMS7003;57634;51.136;17.024;2022-12-19T04:09:06;46;37;23
70243;PMS7003;57634;51.136;17.024;2022-12-19T04:15:23;44;36;23
70243;PMS7003;57634;51.136;17.024;2022-12-19T04:19:05;53;42;28
70243;PMS7003;57634;51.136;17.024;2022-12-19T04:22:18;46;38;25
70243;PMS7003;57634;51.136;17.024;2022-12-19T04:25:36;42;35;22
70243;PMS7003;57634;51.136;17.024;2022-12-19T04:32:21;50;39;25
70243;PMS7003;57634;51.136;17.024;2022-12-19T04:35:24;44;36;22
70243;PMS7003;57634;51.136;17.024;2022-12-19T04:38:26;45;35;23
70243;PMS7003;57634;51.136;17.024;2022-12-19T04:41:28;46;36;23
70243;PMS7003;57634;51.136;17.024;2022-12-19T04:44:29;48;38;23
70243;PMS7003;57634;51.136;17.024;2022-12-19T04:47:31;45;35;22
70243;PMS7003;57634;51.136;17.024;2022-12-19T04:50:33;42;32;19
70243;PMS7003;57634;51.136;17.024;2022-12-19T04:53:35;46;35;23
70243;PMS7003;57634;51.136;17.024;2022-12-19T04:56:36;44;36;23
70243;PMS7003;57634;51.136;17.024;2022-12-19T04:59:38;31;29;22
70243;PMS7003;57634;51.136;17.024;2022-12-19T05:02:39;42;34;21
70243;PMS7003;57634;51.136;17.024;2022-12-19T05:05:41;48;37;22
70243;PMS7003;57634;51.136;17.024;2022-12-19T05:08:47;46;36;23
70243;PMS7003;57634;51.136;17.024;2022-12-19T05:11:48;31;22;10
70243;PMS7003;57634;51.136;17.024;2022-12-19T05:15:16;42;34;23
70243;PMS7003;57634;51.136;17.024;2022-12-19T05:18:17;38;32;20
70243;PMS7003;57634;51.136;17.024;2022-12-19T05:21:19;42;33;21
70243;PMS7003;57634;51.136;17.024;2022-12-19T05:24:21;39;31;18
70243;PMS7003;57634;51.136;17.024;2022-12-19T05:27:23;41;33;21
70243;PMS7003;57634;51.136;17.024;2022-12-19T05:30:24;43;36;22
70243;PMS7003;57634;51.136;17.024;2022-12-19T05:33:25;45;35;22
70243;PMS7003;57634;51.136;17.024;2022-12-19T05:36:26;33;29;16
70243;PMS7003;57634;51.136;17.024;2022-12-19T05:39:27;43;37;23
70243;PMS7003;57634;51.136;17.024;2022-12-19T05:42:30;38;32;18
70243;PMS7003;57634;51.136;17.024;2022-12-19T05:45:32;42;33;21
70243;PMS7003;57634;51.136;17.024;2022-12-19T05:48:33;45;38;22
70243;PMS7003;57634;51.136;17.024;2022-12-19T05:51:35;39;33;19
70243;PMS7003;57634;51.136;17.024;2022-12-19T05:54:36;42;34;20
70243;PMS7003;57634;51.136;17.024;2022-12-19T05:57:37;41;34;19
70243;PMS7003;57634;51.136;17.024;2022-12-19T06:01:07;46;36;23
70243;PMS7003;57634;51.136;17.024;2022-12-19T06:04:10;42;32;21
70243;PMS7003;57634;51.136;17.024;2022-12-19T06:07:12;44;33;21
70243;PMS7003;57634;51.136;17.024;2022-12-19T06:10:13;54;42;26
70243;PMS7003;57634;51.136;17.024;2022-12-19T06:13:14;45;37;23
70243;PMS7003;57634;51.136;17.024;2022-12-19T06:16:16;43;33;21
70243;PMS7003;57634;51.136;17.024;2022-12-19T06:19:21;51;42;24
70243;PMS7003;57634;51.136;17.024;2022-12-19T06:22:22;34;29;18
70243;PMS7003;57634;51.136;17.024;2022-12-19T06:25:23;37;33;20
70243;PMS7003;57634;51.136;17.024;2022-12-19T06:28:25;34;28;19
70243;PMS7003;57634;51.136;17.024;2022-12-19T06:31:32;31;27;17
70243;PMS7003;57634;51.136;17.024;2022-12-19T06:34:33;40;31;19
70243;PMS7003;57634;51.136;17.024;2022-12-19T06:37:34;26;24;15
70243;PMS7003;57634;51.136;17.024;2022-12-19T06:41:02;32;26;17
70243;PMS7003;57634;51.136;17.024;2022-12-19T06:44:18;25;21;14
70243;PMS7003;57634;51.136;17.024;2022-12-19T06:47:20;31;26;15
70243;PMS7003;57634;51.136;17.024;2022-12-19T06:50:24;27;26;17
70243;PMS7003;57634;51.136;17.024;2022-12-19T06:53:25;29;24;16
70243;PMS7003;57634;51.136;17.024;2022-12-19T06:56:27;34;30;19
70243;PMS7003;57634;51.136;17.024;2022-12-19T06:59:37;23;21;14
70243;PMS7003;57634;51.136;17.024;2022-12-19T07:02:38;31;29;18
70243;PMS7003;57634;51.136;17.024;2022-12-19T07:06:11;18;16;12
70243;PMS7003;57634;51.136;17.024;2022-12-19T07:09:18;23;16;8
70243;PMS7003;57634;51.136;17.024;2022-12-19T07:12:19;28;24;14
70243;PMS7003;57634;51.136;17.024;2022-12-19T07:15:21;36;29;19
70243;PMS7003;57634;51.136;17.024;2022-12-19T07:18:25;21;18;9
70243;PMS7003;57634;51.136;17.024;2022-12-19T07:21:27;27;25;16
70243;PMS7003;57634;51.136;17.024;2022-12-19T07:24:33;34;28;17
70243;PMS7003;57634;51.136;17.024;2022-12-19T07:27:36;33;25;15
70243;PMS7003;57634;51.136;17.024;2022-12-19T07:30:37;23;16;9
70243;PMS7003;57634;51.136;17.024;2022-12-19T07:33:42;35;30;20
70243;PMS7003;57634;51.136;17.024;2022-12-19T07:36:43;37;30;19
70243;PMS7003;57634;51.136;17.024;2022-12-19T07:40:11;33;30;17
70243;PMS7003;57634;51.136;17.024;2022-12-19T07:43:12;18;16;9
70243;PMS7003;57634;51.136;17.024;2022-12-19T07:46:13;26;21;15
70243;PMS7003;57634;51.136;17.024;2022-12-19T07:49:14;36;31;19
70243;PMS7003;57634;51.136;17.024;2022-12-19T07:52:16;28;24;14
70243;PMS7003;57634;51.136;17.024;2022-12-19T07:55:18;33;28;18
70243;PMS7003;57634;51.136;17.024;2022-12-19T07:58:19;31;28;17
70243;PMS7003;57634;51.136;17.024;2022-12-19T08:01:22;28;24;13
70243;PMS7003;57634;51.136;17.024;2022-12-19T08:04:24;36;28;19
70243;PMS7003;57634;51.136;17.024;2022-12-19T08:07:25;26;24;16
70243;PMS7003;57634;51.136;17.024;2022-12-19T08:10:27;32;28;17
70243;PMS7003;57634;51.136;17.024;2022-12-19T08:13:29;32;29;19
70243;PMS7003;57634;51.136;17.024;2022-12-19T08:16:30;28;25;16
70243;PMS7003;57634;51.136;17.024;2022-12-19T08:19:31;32;25;16
70243;PMS7003;57634;51.136;17.024;2022-12-19T08:22:33;33;29;19
70243;PMS7003;57634;51.136;17.024;2022-12-19T08:26:01;32;30;19
70243;PMS7003;57634;51.136;17.024;2022-12-19T08:29:09;28;24;16
70243;PMS7003;57634;51.136;17.024;2022-12-19T08:32:10;32;28;19
70243;PMS7003;57634;51.136;17.024;2022-12-19T08:35:11;39;32;20
70243;PMS7003;57634;51.136;17.024;2022-12-19T08:38:12;29;25;16
70243;PMS7003;57634;51.136;17.024;2022-12-19T08:41:14;29;25;16
70243;PMS7003;57634;51.136;17.024;2022-12-19T08:44:16;31;25;17
70243;PMS7003;57634;51.136;17.024;2022-12-19T08:47:17;35;31;20
70243;PMS7003;57634;51.136;17.024;2022-12-19T08:50:18;36;30;20
70243;PMS7003;57634;51.136;17.024;2022-12-19T08:53:20;36;31;20
70243;PMS7003;57634;51.136;17.024;2022-12-19T08:56:21;42;34;22
70243;PMS7003;57634;51.136;17.024;2022-12-19T08:59:23;31;28;19
70243;PMS7003;57634;51.136;17.024;2022-12-19T09:02:24;41;33;21
70243;PMS7003;57634;51.136;17.024;2022-12-19T09:05:57;36;31;18
70243;PMS7003;57634;51.136;17.024;2022-12-19T09:09:01;28;23;12
70243;PMS7003;57634;51.136;17.024;2022-12-19T09:12:05;30;28;16
70243;PMS7003;57634;51.136;17.024;2022-12-19T09:15:07;32;29;16
70243;PMS7003;57634;51.136;17.024;2022-12-19T09:19:16;29;26;15
70243;PMS7003;57634;51.136;17.024;2022-12-19T09:22:18;32;27;16
70243;PMS7003;57634;51.136;17.024;2022-12-19T09:25:20;42;35;22
70243;PMS7003;57634;51.136;17.024;2022-12-19T09:28:21;38;34;21
70243;PMS7003;57634;51.136;17.024;2022-12-19T09:31:23;32;29;17
70243;PMS7003;57634;51.136;17.024;2022-12-19T09:34:26;28;24;13
70243;PMS7003;57634;51.136;17.024;2022-12-19T09:37:28;42;35;21
70243;PMS7003;57634;51.136;17.024;2022-12-19T09:40:32;37;31;21
70243;PMS7003;57634;51.136;17.024;2022-12-19T09:47:25;29;25;15
70243;PMS7003;57634;51.136;17.024;2022-12-19T09:56:58;33;29;19
70243;PMS7003;57634;51.136;17.024;2022-12-19T10:00:09;34;31;20
70243;PMS7003;57634;51.136;17.024;2022-12-19T10:03:40;35;28;17
70243;PMS7003;57634;51.136;17.024;2022-12-19T10:06:46;31;24;12
70243;PMS7003;57634;51.136;17.024;2022-12-19T10:09:48;28;23;17
70243;PMS7003;57634;51.136;17.024;2022-12-19T10:16:03;18;14;9
70243;PMS7003;57634;51.136;17.024;2022-12-19T10:26:18;23;20;13
70243;PMS7003;57634;51.136;17.024;2022-12-19T10:36:13;23;23;14
70243;PMS7003;57634;51.136;17.024;2022-12-19T10:42:39;21;18;12
70243;PMS7003;57634;51.136;17.024;2022-12-19T10:45:47;23;19;13
70243;PMS7003;57634;51.136;17.024;2022-12-19T10:48:53;21;19;11
70243;PMS7003;57634;51.136;17.024;2022-12-19T10:51:58;26;22;14
70243;PMS7003;57634;51.136;17.024;2022-12-19T10:58:42;23;17;12
70243;PMS7003;57634;51.136;17.024;2022-12-19T11:01:44;21;17;11
70243;PMS7003;57634;51.136;17.024;2022-12-19T11:04:46;58;45;28
70243;PMS7003;57634;51.136;17.024;2022-12-19T11:11:09;30;27;15
70243;PMS7003;57634;51.136;17.024;2022-12-19T11:14:40;24;20;14
70243;PMS7003;57634;51.136;17.024;2022-12-19T11:17:45;23;20;12
70243;PMS7003;57634;51.136;17.024;2022-12-19T11:24:02;21;19;13
70243;PMS7003;57634;51.136;17.024;2022-12-19T11:30:25;19;18;12
70243;PMS7003;57634;51.136;17.024;2022-12-19T11:34:05;28;24;15
70243;PMS7003;57634;51.136;17.024;2022-12-19T11:37:15;24;22;14
70243;PMS7003;57634;51.136;17.024;2022-12-19T11:43:43;17;17;13
70243;PMS7003;57634;51.136;17.024;2022-12-19T11:50:34;21;19;12
70243;PMS7003;57634;51.136;17.024;2022-12-19T11:53:48;22;19;13
70243;PMS7003;57634;51.136;17.024;2022-12-19T11:57:01;21;19;10
70243;PMS7003;57634;51.136;17.024;2022-12-19T12:00:02;15;14;9
70243;PMS7003;57634;51.136;17.024;2022-12-19T12:06:47;6;6;3
70243;PMS7003;57634;51.136;17.024;2022-12-19T12:09:55;17;11;7
70243;PMS7003;57634;51.136;17.024;2022-12-19T12:16:15;14;13;7
70243;PMS7003;57634;51.136;17.024;2022-12-19T12:29:31;17;15;8
70243;PMS7003;57634;51.136;17.024;2022-12-19T12:46:02;12;12;9
70243;PMS7003;57634;51.136;17.024;2022-12-19T12:49:11;14;12;8
70243;PMS7003;57634;51.136;17.024;2022-12-19T12:52:48;16;13;9
70243;PMS7003;57634;51.136;17.024;2022-12-19T12:55:58;18;16;11
70243;PMS7003;57634;51.136;17.024;2022-12-19T12:59:05;19;15;10
70243;PMS7003;57634;51.136;17.024;2022-12-19T13:02:14;18;15;10
70243;PMS7003;57634;51.136;17.024;2022-12-19T13:09:04;17;15;10
70243;PMS7003;57634;51.136;17.024;2022-12-19T13:12:19;19;15;11
70243;PMS7003;57634;51.136;17.024;2022-12-19T13:15:41;14;14;10
70243;PMS7003;57634;51.136;17.024;2022-12-19T13:28:52;14;12;8
70243;PMS7003;57634;51.136;17.024;2022-12-19T13:38:47;21;15;10
70243;PMS7003;57634;51.136;17.024;2022-12-19T13:41:50;19;15;10
70243;PMS7003;57634;51.136;17.024;2022-12-19T13:45:21;20;18;11
70243;PMS7003;57634;51.136;17.024;2022-12-19T13:48:31;20;16;9
70243;PMS7003;57634;51.136;17.024;2022-12-19T13:52:05;20;18;11
70243;PMS7003;57634;51.136;17.024;2022-12-19T13:55:11;18;15;11
70243;PMS7003;57634;51.136;17.024;2022-12-19T13:58:24;17;16;9
70243;PMS7003;57634;51.136;17.024;2022-12-19T14:01:27;18;16;10
70243;PMS7003;57634;51.136;17.024;2022-12-19T14:04:33;19;16;11
70243;PMS7003;57634;51.136;17.024;2022-12-19T14:07:39;17;16;10
70243;PMS7003;57634;51.136;17.024;2022-12-19T14:10:46;22;18;12
70243;PMS7003;57634;51.136;17.024;2022-12-19T14:14:16;19;15;12
70243;PMS7003;57634;51.136;17.024;2022-12-19T14:17:30;17;17;10
70243;PMS7003;57634;51.136;17.024;2022-12-19T14:20:33;22;18;11
70243;PMS7003;57634;51.136;17.024;2022-12-19T14:23:34;57;45;27
70243;PMS7003;57634;51.136;17.024;2022-12-19T14:26:36;43;35;23
70243;PMS7003;57634;51.136;17.024;2022-12-19T14:29:41;21;19;14
70243;PMS7003;57634;51.136;17.024;2022-12-19T14:32:46;21;18;12
70243;PMS7003;57634;51.136;17.024;2022-12-19T14:35:54;20;17;11
70243;PMS7003;57634;51.136;17.024;2022-12-19T14:39:22;22;19;12
70243;PMS7003;57634;51.136;17.024;2022-12-19T14:42:28;21;19;10
70243;PMS7003;57634;51.136;17.024;2022-12-19T14:45:41;19;16;10
70243;PMS7003;57634;51.136;17.024;2022-12-19T14:48:50;20;15;9
70243;PMS7003;57634;51.136;17.024;2022-12-19T14:51:55;18;17;10
70243;PMS7003;57634;51.136;17.024;2022-12-19T14:58:37;17;15;8
70243;PMS7003;57634;51.136;17.024;2022-12-19T15:01:39;19;15;9
70243;PMS7003;57634;51.136;17.024;2022-12-19T15:04:43;21;15;9
70243;PMS7003;57634;51.136;17.024;2022-12-19T15:07:48;18;15;10
70243;PMS7003;57634;51.136;17.024;2022-12-19T15:10:56;18;13;9
70243;PMS7003;57634;51.136;17.024;2022-12-19T15:14:11;15;14;10
70243;PMS7003;57634;51.136;17.024;2022-12-19T15:20:49;16;14;10
70243;PMS7003;57634;51.136;17.024;2022-12-19T15:23:52;16;15;10
70243;PMS7003;57634;51.136;17.024;2022-12-19T15:26:54;19;17;12
70243;PMS7003;57634;51.136;17.024;2022-12-19T15:29:55;19;18;12
70243;PMS7003;57634;51.136;17.024;2022-12-19T15:32:57;18;15;9
70243;PMS7003;57634;51.136;17.024;2022-12-19T15:35:58;17;14;9
70243;PMS7003;57634;51.136;17.024;2022-12-19T15:38:59;18;16;11
70243;PMS7003;57634;51.136;17.024;2022-12-19T15:42:00;20;18;12
70243;PMS7003;57634;51.136;17.024;2022-12-19T15:45:02;18;17;12
70243;PMS7003;57634;51.136;17.024;2022-12-19T15:48:07;19;16;10
70243;PMS7003;57634;51.136;17.024;2022-12-19T15:51:13;19;16;11
70243;PMS7003;57634;51.136;17.024;2022-12-19T15:54:16;19;16;11
70243;PMS7003;57634;51.136;17.024;2022-12-19T15:57:48;16;15;11
70243;PMS7003;57634;51.136;17.024;2022-12-19T16:00:55;18;16;10
70243;PMS7003;57634;51.136;17.024;2022-12-19T16:03:59;22;20;13
70243;PMS7003;57634;51.136;17.024;2022-12-19T16:07:07;22;18;12
70243;PMS7003;57634;51.136;17.024;2022-12-19T16:10:14;20;15;11
70243;PMS7003;57634;51.136;17.024;2022-12-19T16:13:17;14;11;7
70243;PMS7003;57634;51.136;17.024;2022-12-19T16:16:27;16;16;10
70243;PMS7003;57634;51.136;17.024;2022-12-19T16:19:56;23;18;11
70243;PMS7003;57634;51.136;17.024;2022-12-19T16:22:58;20;16;10
70243;PMS7003;57634;51.136;17.024;2022-12-19T16:25:59;19;18;11
70243;PMS7003;57634;51.136;17.024;2022-12-19T16:29:02;19;17;11
70243;PMS7003;57634;51.136;17.024;2022-12-19T16:32:08;22;19;12
70243;PMS7003;57634;51.136;17.024;2022-12-19T16:35:15;21;18;11
70243;PMS7003;57634;51.136;17.024;2022-12-19T16:38:22;20;18;10
70243;PMS7003;57634;51.136;17.024;2022-12-19T16:41:23;21;16;11
70243;PMS7003;57634;51.136;17.024;2022-12-19T16:44:30;12;11;5
70243;PMS7003;57634;51.136;17.024;2022-12-19T16:47:59;21;20;12
70243;PMS7003;57634;51.136;17.024;2022-12-19T16:51:00;17;15;10
70243;PMS7003;57634;51.136;17.024;2022-12-19T16:54:02;23;19;13
70243;PMS7003;57634;51.136;17.024;2022-12-19T16:57:03;19;17;10
70243;PMS7003;57634;51.136;17.024;2022-12-19T17:00:16;20;18;10
70243;PMS7003;57634;51.136;17.024;2022-12-19T17:06:35;28;24;16
70243;PMS7003;57634;51.136;17.024;2022-12-19T17:09:37;28;21;11
70243;PMS7003;57634;51.136;17.024;2022-12-19T17:13:08;17;15;10
70243;PMS7003;57634;51.136;17.024;2022-12-19T17:16:12;18;16;10
70243;PMS7003;57634;51.136;17.024;2022-12-19T17:19:18;21;17;10
70243;PMS7003;57634;51.136;17.024;2022-12-19T17:22:23;19;15;10
70243;PMS7003;57634;51.136;17.024;2022-12-19T17:25:25;17;15;10
70243;PMS7003;57634;51.136;17.024;2022-12-19T17:28:31;24;19;12
70243;PMS7003;57634;51.136;17.024;2022-12-19T17:31:32;23;18;11
70243;PMS7003;57634;51.136;17.024;2022-12-19T17:34:38;18;14;9
70243;PMS7003;57634;51.136;17.024;2022-12-19T17:37:39;20;16;10
70243;PMS7003;57634;51.136;17.024;2022-12-19T17:40:41;21;19;10
70243;PMS7003;57634;51.136;17.024;2022-12-19T17:44:08;14;11;6
70243;PMS7003;57634;51.136;17.024;2022-12-19T17:47:14;17;16;10
70243;PMS7003;57634;51.136;17.024;2022-12-19T17:50:23;11;9;7
70243;PMS7003;57634;51.136;17.024;2022-12-19T17:53:26;17;14;10
70243;PMS7003;57634;51.136;17.024;2022-12-19T17:56:28;17;14;9
70243;PMS7003;57634;51.136;17.024;2022-12-19T17:59:29;16;15;10
70243;PMS7003;57634;51.136;17.024;2022-12-19T18:02:31;19;15;9
70243;PMS7003;57634;51.136;17.024;2022-12-19T18:05:36;19;13;9
70243;PMS7003;57634;51.136;17.024;2022-12-19T18:08:37;18;17;11
70243;PMS7003;57634;51.136;17.024;2022-12-19T18:11:38;17;15;10
70243;PMS7003;57634;51.136;17.024;2022-12-19T18:14:40;15;13;8
70243;PMS7003;57634;51.136;17.024;2022-12-19T18:18:11;15;12;7
70243;PMS7003;57634;51.136;17.024;2022-12-19T18:21:17;16;12;8
70243;PMS7003;57634;51.136;17.024;2022-12-19T18:24:24;17;13;9
70243;PMS7003;57634;51.136;17.024;2022-12-19T18:27:26;22;17;11
70243;PMS7003;57634;51.136;17.024;2022-12-19T18:30:27;17;16;10
70243;PMS7003;57634;51.136;17.024;2022-12-19T18:33:31;23;19;12
70243;PMS7003;57634;51.136;17.024;2022-12-19T18:36:38;15;14;8
70243;PMS7003;57634;51.136;17.024;2022-12-19T18:39:42;18;15;10
70243;PMS7003;57634;51.136;17.024;2022-12-19T18:42:44;18;15;10
70243;PMS7003;57634;51.136;17.024;2022-12-19T18:46:13;17;16;10
70243;PMS7003;57634;51.136;17.024;2022-12-19T18:49:20;15;13;8
70243;PMS7003;57634;51.136;17.024;2022-12-19T18:52:23;18;15;10
70243;PMS7003;57634;51.136;17.024;2022-12-19T18:55:25;17;15;9
70243;PMS7003;57634;51.136;17.024;2022-12-19T18:58:31;18;17;11
70243;PMS7003;57634;51.136;17.024;2022-12-19T19:01:38;15;12;6
70243;PMS7003;57634;51.136;17.024;2022-12-19T19:04:43;16;15;9
70243;PMS7003;57634;51.136;17.024;2022-12-19T19:07:45;22;17;13
70243;PMS7003;57634;51.136;17.024;2022-12-19T19:10:48;18;11;6
70243;PMS7003;57634;51.136;17.024;2022-12-19T19:14:17;17;14;8
70243;PMS7003;57634;51.136;17.024;2022-12-19T19:17:22;17;15;10
70243;PMS7003;57634;51.136;17.024;2022-12-19T19:20:29;15;13;9
70243;PMS7003;57634;51.136;17.024;2022-12-19T19:26:47;16;13;10
70243;PMS7003;57634;51.136;17.024;2022-12-19T19:29:50;15;15;10
70243;PMS7003;57634;51.136;17.024;2022-12-19T19:32:53;18;17;10
70243;PMS7003;57634;51.136;17.024;2022-12-19T19:36:28;18;16;9
70243;PMS7003;57634;51.136;17.024;2022-12-19T19:39:35;16;11;6
70243;PMS7003;57634;51.136;17.024;2022-12-19T19:42:37;19;15;10
70243;PMS7003;57634;51.136;17.024;2022-12-19T19:45:38;19;15;8
70243;PMS7003;57634;51.136;17.024;2022-12-19T19:48:40;20;16;9
70243;PMS7003;57634;51.136;17.024;2022-12-19T19:51:42;14;12;8
70243;PMS7003;57634;51.136;17.024;2022-12-19T19:54:43;21;18;10
70243;PMS7003;57634;51.136;17.024;2022-12-19T19:57:45;17;14;11
70243;PMS7003;57634;51.136;17.024;2022-12-19T20:00:46;14;14;8
70243;PMS7003;57634;51.136;17.024;2022-12-19T20:03:47;20;17;11
70243;PMS7003;57634;51.136;17.024;2022-12-19T20:06:49;16;14;9
70243;PMS7003;57634;51.136;17.024;2022-12-19T20:09:50;15;14;9
70243;PMS7003;57634;51.136;17.024;2022-12-19T20:12:53;18;13;8
70243;PMS7003;57634;51.136;17.024;2022-12-19T20:16:20;21;16;9
70243;PMS7003;57634;51.136;17.024;2022-12-19T20:19:22;18;17;10
70243;PMS7003;57634;51.136;17.024;2022-12-19T20:22:23;18;16;11
70243;PMS7003;57634;51.136;17.024;2022-12-19T20:25:25;18;17;10
70243;PMS7003;57634;51.136;17.024;2022-12-19T20:28:26;16;15;9
70243;PMS7003;57634;51.136;17.024;2022-12-19T20:31:27;16;15;9
70243;PMS7003;57634;51.136;17.024;2022-12-19T20:34:32;22;18;9
70243;PMS7003;57634;51.136;17.024;2022-12-19T20:37:34;18;14;9
70243;PMS7003;57634;51.136;17.024;2022-12-19T20:40:35;21;20;12
70243;PMS7003;57634;51.136;17.024;2022-12-19T20:43:37;16;14;10
70243;PMS7003;57634;51.136;17.024;2022-12-19T20:46:44;12;12;8
70243;PMS7003;57634;51.136;17.024;2022-12-19T20:49:45;18;15;9
70243;PMS7003;57634;51.136;17.024;2022-12-19T20:52:47;15;13;9
70243;PMS7003;57634;51.136;17.024;2022-12-19T20:56:15;15;14;8
70243;PMS7003;57634;51.136;17.024;2022-12-19T20:59:18;15;14;10
70243;PMS7003;57634;51.136;17.024;2022-12-19T21:02:19;18;16;10
70243;PMS7003;57634;51.136;17.024;2022-12-19T21:05:20;21;17;10
70243;PMS7003;57634;51.136;17.024;2022-12-19T21:08:22;19;17;10
70243;PMS7003;57634;51.136;17.024;2022-12-19T21:11:28;22;18;11
70243;PMS7003;57634;51.136;17.024;2022-12-19T21:14:29;14;14;8
70243;PMS7003;57634;51.136;17.024;2022-12-19T21:17:30;22;19;13
70243;PMS7003;57634;51.136;17.024;2022-12-19T21:20:33;21;17;11
70243;PMS7003;57634;51.136;17.024;2022-12-19T21:23:35;17;15;10
70243;PMS7003;57634;51.136;17.024;2022-12-19T21:26:36;20;17;12
70243;PMS7003;57634;51.136;17.024;2022-12-19T21:29:37;16;15;10
70243;PMS7003;57634;51.136;17.024;2022-12-19T21:32:39;17;15;10
70243;PMS7003;57634;51.136;17.024;2022-12-19T21:36:08;17;16;11
70243;PMS7003;57634;51.136;17.024;2022-12-19T21:39:19;19;16;11
70243;PMS7003;57634;51.136;17.024;2022-12-19T21:42:25;14;13;9
70243;PMS7003;57634;51.136;17.024;2022-12-19T21:45:26;17;17;10
70243;PMS7003;57634;51.136;17.024;2022-12-19T21:48:27;18;17;10
70243;PMS7003;57634;51.136;17.024;2022-12-19T21:51:29;18;15;9
70243;PMS7003;57634;51.136;17.024;2022-12-19T21:54:32;18;16;10
70243;PMS7003;57634;51.136;17.024;2022-12-19T22:00:41;15;13;9
70243;PMS7003;57634;51.136;17.024;2022-12-19T22:04:11;18;15;9
70243;PMS7003;57634;51.136;17.024;2022-12-19T22:07:17;16;14;9
70243;PMS7003;57634;51.136;17.024;2022-12-19T22:10:19;17;16;10
70243;PMS7003;57634;51.136;17.024;2022-12-19T22:13:20;19;16;8
70243;PMS7003;57634;51.136;17.024;2022-12-19T22:16:23;13;10;8
70243;PMS7003;57634;51.136;17.024;2022-12-19T22:19:24;18;15;9
70243;PMS7003;57634;51.136;17.024;2022-12-19T22:22:26;17;13;9
70243;PMS7003;57634;51.136;17.024;2022-12-19T22:25:28;15;14;10